Terminal Aerodrome Forecast
Issued by NWS Grand Forks, ND

Home | Current Version | Previous Version | Text Only | Print | Product List | Glossary Off
Versions: 1 2 3 4 5 6 7 8 9 10 11 12 13 14 15 16

000
FTUS43 KFGF 191120
TAFFAR
TAF
KFAR 191120Z 1912/2012 15006KT P6SM FEW200
     FM191700 16011G18KT P6SM VCTS BKN150CB
     FM192100 15009KT P6SM BKN150
     FM200200 VRB04KT P6SM SCT150=

USA.gov is the U.S. government's official web portal to all federal, state and local government web resources and services.